^^
Meteo Knjazevac Station Historical Data
Daily Summary for September 28, 2022 Units:  Both    English   Metric
Daily Weekly Monthly Yearly Custom
  High: Low: Average:
Temperature: 55.2 °F /  12.9 °C 52 °F /  11.1 °C 53.8 °F /  12.1 °C
Dew Point: 54.9 °F /  12.7 °C 51.6 °F /  10.9 °C 53 °F /  11.7 °C
Humidity: 99% 95% 97%
Wind Speed: 6.8mph /  10.9km/h - 3.7mph /  6km/h
Wind Gust: 8mph /  12.9km/h - -
Wind- - ENE
Pressure: 29.78 in /  1008.4 hPa 29.77 in /  1008 hPa -
Precipitation: 0.00 in /  0 mm    
Historical Graphs
 
 
Tabular Data for September 28, 2022
Time Temperature Dew Point Pressure Wind Wind Speed Wind Gust Humidity Rainfall Rate (Hourly) solar Conditions
00:04 54.4 °F /  12.4 °C 54.1 °F /  12.3 °C 29.77in /  1008hPa NNE 4.9mph /  7.9km/h 5.4mph /  8.7km/h 99% 0.00in /  0mm 0 W/m2
00:09 54.9 °F /  12.7 °C 54.6 °F /  12.6 °C 29.77in /  1008hPa NE 4.6mph /  7.4km/h 6mph /  9.7km/h 99% 0.00in /  0mm 0 W/m2
00:14 55.1 °F /  12.8 °C 54.9 °F /  12.7 °C 29.77in /  1008hPa NE 3.4mph /  5.5km/h 5mph /  8km/h 99% 0.00in /  0mm 0 W/m2
00:19 55.2 °F /  12.9 °C 54.9 °F /  12.7 °C 29.77in /  1008hPa ENE 3mph /  4.8km/h 4mph /  6.4km/h 99% 0.00in /  0mm 0 W/m2
00:24 55.1 °F /  12.8 °C 54.8 °F /  12.7 °C 29.77in /  1008hPa East 1.5mph /  2.4km/h 3mph /  4.8km/h 99% 0.00in /  0mm 0 W/m2
00:29 55 °F /  12.8 °C 54.7 °F /  12.6 °C 29.77in /  1008hPa NNE 1.1mph /  1.8km/h 2mph /  3.2km/h 99% 0.00in /  0mm 0 W/m2
00:34 54.9 °F /  12.7 °C 54.6 °F /  12.6 °C 29.77in /  1008hPa NNE 2.5mph /  4km/h 2.5mph /  4km/h 99% 0.00in /  0mm 0 W/m2
00:39 54.9 °F /  12.7 °C 54.6 °F /  12.6 °C 29.77in /  1008hPa East 2.5mph /  4km/h 4mph /  6.4km/h 98.9% 0.00in /  0mm 0 W/m2
00:44 54.9 °F /  12.7 °C 54.5 °F /  12.5 °C 29.77in /  1008hPa East 3.7mph /  6km/h 3.1mph /  5km/h 98.7% 0.00in /  0mm 0 W/m2
00:49 54.8 °F /  12.7 °C 54.2 °F /  12.3 °C 29.77in /  1008hPa East 6.1mph /  9.8km/h 5mph /  8km/h 98% 0.00in /  0mm 0 W/m2
00:54 55 °F /  12.8 °C 54.5 °F /  12.5 °C 29.77in /  1008hPa East 4.1mph /  6.6km/h 7mph /  11.3km/h 98% 0.00in /  0mm 0 W/m2
00:59 55 °F /  12.8 °C 54.5 °F /  12.5 °C 29.77in /  1008hPa ENE 1.9mph /  3.1km/h 5mph /  8km/h 98% 0.00in /  0mm 0 W/m2
01:04 54.8 °F /  12.7 °C 54.3 °F /  12.4 °C 29.77in /  1008hPa NE 2mph /  3.2km/h 3mph /  4.8km/h 98% 0.00in /  0mm 0 W/m2
01:09 54.7 °F /  12.6 °C 54.1 °F /  12.3 °C 29.77in /  1008hPa NE 4mph /  6.4km/h 3.4mph /  5.5km/h 98% 0.00in /  0mm 0 W/m2
01:14 54.5 °F /  12.5 °C 53.9 °F /  12.2 °C 29.77in /  1008hPa NE 4.3mph /  6.9km/h 6mph /  9.7km/h 98% 0.00in /  0mm 0 W/m2
01:19 54.5 °F /  12.5 °C 53.9 °F /  12.2 °C 29.77in /  1008hPa NE 5.5mph /  8.9km/h 5mph /  8km/h 98% 0.00in /  0mm 0 W/m2
01:24 54.7 °F /  12.6 °C 53.9 °F /  12.2 °C 29.77in /  1008hPa NE 5.3mph /  8.5km/h 7mph /  11.3km/h 97.3% 0.00in /  0mm 0 W/m2
01:29 54.7 °F /  12.6 °C 53.6 °F /  12 °C 29.77in /  1008hPa NE 4.2mph /  6.8km/h 7mph /  11.3km/h 96.1% 0.00in /  0mm 0 W/m2
01:34 54.7 °F /  12.6 °C 53.8 °F /  12.1 °C 29.77in /  1008hPa NE 3.7mph /  6km/h 5mph /  8km/h 96.9% 0.00in /  0mm 0 W/m2
01:39 54.5 °F /  12.5 °C 53.6 °F /  12 °C 29.77in /  1008hPa NE 5.4mph /  8.7km/h 5mph /  8km/h 96.9% 0.00in /  0mm 0 W/m2
01:44 54.5 °F /  12.5 °C 53.4 °F /  11.9 °C 29.77in /  1008hPa NE 5mph /  8km/h 7mph /  11.3km/h 96% 0.00in /  0mm 0 W/m2
01:49 54.3 °F /  12.4 °C 53.2 °F /  11.8 °C 29.78in /  1008.4hPa NE 6mph /  9.7km/h 6mph /  9.7km/h 96% 0.00in /  0mm 0 W/m2
01:54 54.3 °F /  12.4 °C 53.2 °F /  11.8 °C 29.78in /  1008.4hPa ENE 5.9mph /  9.5km/h 7mph /  11.3km/h 96% 0.00in /  0mm 0 W/m2
01:59 54.3 °F /  12.4 °C 53.3 °F /  11.8 °C 29.78in /  1008.4hPa East 6.3mph /  10.1km/h 7mph /  11.3km/h 96% 0.00in /  0mm 0 W/m2
02:04 54.5 °F /  12.5 °C 53.4 °F /  11.9 °C 29.78in /  1008.4hPa East 6mph /  9.7km/h 7mph /  11.3km/h 96% 0.00in /  0mm 0 W/m2
02:09 54.6 °F /  12.6 °C 53.4 °F /  11.9 °C 29.78in /  1008.4hPa East 6.8mph /  10.9km/h 7mph /  11.3km/h 95.5% 0.00in /  0mm 0 W/m2
02:14 54.7 °F /  12.6 °C 53.3 °F /  11.8 °C 29.78in /  1008.4hPa East 5.7mph /  9.2km/h 8mph /  12.9km/h 95% 0.00in /  0mm 0 W/m2
02:19 54.6 °F /  12.6 °C 53.2 °F /  11.8 °C 29.78in /  1008.4hPa East 4.8mph /  7.7km/h 7mph /  11.3km/h 95% 0.00in /  0mm 0 W/m2
02:24 54.5 °F /  12.5 °C 53.1 °F /  11.7 °C 29.78in /  1008.4hPa ENE 4.4mph /  7.1km/h 5mph /  8km/h 95% 0.00in /  0mm 0 W/m2
02:29 54.5 °F /  12.5 °C 53.1 °F /  11.7 °C 29.78in /  1008.4hPa NE 4.4mph /  7.1km/h 5mph /  8km/h 95% 0.00in /  0mm 0 W/m2
02:34 54.3 °F /  12.4 °C 52.9 °F /  11.6 °C 29.78in /  1008.4hPa NE 3.9mph /  6.3km/h 6mph /  9.7km/h 95% 0.00in /  0mm 0 W/m2
02:39 54.3 °F /  12.4 °C 52.9 °F /  11.6 °C 29.78in /  1008.4hPa ENE 3.7mph /  6km/h 5mph /  8km/h 95% 0.00in /  0mm 0 W/m2
02:44 54.3 °F /  12.4 °C 52.9 °F /  11.6 °C 29.78in /  1008.4hPa East 2.9mph /  4.7km/h 5mph /  8km/h 95% 0.00in /  0mm 0 W/m2
02:49 54.1 °F /  12.3 °C 52.7 °F /  11.5 °C 29.78in /  1008.4hPa East 2.8mph /  4.5km/h 3mph /  4.8km/h 95% 0.00in /  0mm 0 W/m2
02:54 54.1 °F /  12.3 °C 52.7 °F /  11.5 °C 29.78in /  1008.4hPa East 3.4mph /  5.5km/h 5mph /  8km/h 95% 0.00in /  0mm 0 W/m2
02:59 53.9 °F /  12.2 °C 52.5 °F /  11.4 °C 29.78in /  1008.4hPa East 1.5mph /  2.4km/h 5mph /  8km/h 95.2% 0.00in /  0mm 0 W/m2
03:04 53.6 °F /  12 °C 52.4 °F /  11.3 °C 29.78in /  1008.4hPa NE 2.6mph /  4.2km/h 2mph /  3.2km/h 95.7% 0.00in /  0mm 0 W/m2
03:09 53.4 °F /  11.9 °C 52.3 °F /  11.3 °C 29.78in /  1008.4hPa NE 3mph /  4.8km/h 3mph /  4.8km/h 96% 0.00in /  0mm 0 W/m2
03:14 53.4 °F /  11.9 °C 52.3 °F /  11.3 °C 29.78in /  1008.4hPa ENE 2.2mph /  3.5km/h 4mph /  6.4km/h 96% 0.00in /  0mm 0 W/m2
03:19 53.3 °F /  11.8 °C 52.2 °F /  11.2 °C 29.78in /  1008.4hPa NNE 2.4mph /  3.9km/h 3mph /  4.8km/h 96% 0.00in /  0mm 0 W/m2
03:24 53.1 °F /  11.7 °C 52 °F /  11.1 °C 29.78in /  1008.4hPa NNW 3.6mph /  5.8km/h 3mph /  4.8km/h 96% 0.00in /  0mm 0 W/m2
03:29 53 °F /  11.7 °C 51.9 °F /  11.1 °C 29.78in /  1008.4hPa ENE 3.9mph /  6.3km/h 5mph /  8km/h 96% 0.00in /  0mm 0 W/m2
03:34 53.1 °F /  11.7 °C 52 °F /  11.1 °C 29.78in /  1008.4hPa ESE 5.1mph /  8.2km/h 6mph /  9.7km/h 96% 0.00in /  0mm 0 W/m2
03:39 53.2 °F /  11.8 °C 52.1 °F /  11.2 °C 29.78in /  1008.4hPa SE 3.6mph /  5.8km/h 6mph /  9.7km/h 96% 0.00in /  0mm 0 W/m2
03:44 53.1 °F /  11.7 °C 52 °F /  11.1 °C 29.78in /  1008.4hPa ESE 2.2mph /  3.5km/h 6mph /  9.7km/h 96% 0.00in /  0mm 0 W/m2
03:49 52.8 °F /  11.6 °C 51.7 °F /  10.9 °C 29.78in /  1008.4hPa ENE 2.2mph /  3.5km/h 3mph /  4.8km/h 96% 0.00in /  0mm 0 W/m2
03:54 52.5 °F /  11.4 °C 51.7 °F /  10.9 °C 29.78in /  1008.4hPa East 2.1mph /  3.4km/h 2mph /  3.2km/h 97% 0.00in /  0mm 0 W/m2
03:59 52.4 °F /  11.3 °C 51.9 °F /  11.1 °C 29.78in /  1008.4hPa NE 2mph /  3.2km/h 2mph /  3.2km/h 98% 0.00in /  0mm 0 W/m2
04:04 52.2 °F /  11.2 °C 51.6 °F /  10.9 °C 29.78in /  1008.4hPa NNE 2.1mph /  3.4km/h 2mph /  3.2km/h 98% 0.00in /  0mm 0 W/m2
04:09 52.1 °F /  11.2 °C 51.7 °F /  10.9 °C 29.78in /  1008.4hPa NNE 2.1mph /  3.4km/h 2mph /  3.2km/h 98.5% 0.00in /  0mm 0 W/m2
04:14 52 °F /  11.1 °C 51.7 °F /  10.9 °C 29.78in /  1008.4hPa NNE 3.4mph /  5.5km/h 5mph /  8km/h 99% 0.00in /  0mm 0 W/m2
04:19 52 °F /  11.1 °C 51.7 °F /  10.9 °C 29.78in /  1008.4hPa NE 2mph /  3.2km/h 5mph /  8km/h 99% 0.00in /  0mm 0 W/m2
04:24 52 °F /  11.1 °C 51.7 °F /  10.9 °C 29.78in /  1008.4hPa ENE 3.2mph /  5.1km/h 3mph /  4.8km/h 99% 0.00in /  0mm 0 W/m2
04:29 52.2 °F /  11.2 °C 51.9 °F /  11.1 °C 29.78in /  1008.4hPa SE 4.5mph /  7.2km/h 5mph /  8km/h 99% 0.00in /  0mm 0 W/m2
04:34 52.3 °F /  11.3 °C 52.1 °F /  11.2 °C 29.78in /  1008.4hPa SE 4.8mph /  7.7km/h 6mph /  9.7km/h 98.9% 0.00in /  0mm 0 W/m2
04:39 52.3 °F /  11.3 °C 51.8 °F /  11 °C 29.78in /  1008.4hPa SSE 3.6mph /  5.8km/h 6mph /  9.7km/h 98% 0.00in /  0mm 0 W/m2
04:44 52.2 °F /  11.2 °C 51.7 °F /  10.9 °C 29.78in /  1008.4hPa SSE 5.2mph /  8.4km/h 7mph /  11.3km/h 98.3% 0.00in /  0mm 0 W/m2
04:49 52.3 °F /  11.3 °C 52.1 °F /  11.2 °C 29.78in /  1008.4hPa SSE 3.6mph /  5.8km/h 6mph /  9.7km/h 98.8% 0.00in /  0mm 0 W/m2
04:54 52.6 °F /  11.4 °C 52.1 °F /  11.2 °C 29.78in /  1008.4hPa SE 3.6mph /  5.8km/h 4mph /  6.4km/h 98% 0.00in /  0mm 0 W/m2
04:59 52.8 °F /  11.6 °C 52.2 °F /  11.2 °C 29.78in /  1008.4hPa ESE 3.5mph /  5.6km/h 5mph /  8km/h 98% 0.00in /  0mm 0 W/m2
Knjazevac, Serbia
Compliments of Weather Underground - 2 mb